UAL3305 KMIA-KJFK
Flight info
| Callsign | UAL3305 |
|---|---|
| Flight time | N/A |
| Altitude | 39000 |
| Route | FOLZZ3 ALYRA PELCN Y309 FLRDA SAGGY CHIEZ Q161 KALDA Q108 SIE CAMRN5 |
| Aircraft | B742/H-V/N |
Departure
| Time | 2026-05-05 20:09 |
|---|---|
| Airport | Miami International Airport (KMIA) |
Arrival
| Time | N/A |
|---|---|
| Airport | John F. Kennedy International Airport (KJFK) |
| Time | Latitude | Longitude | Altitude | Speed | Heading |
|---|---|---|---|---|---|
| 2026-05-05 18:35 | 25.79146 | -80.27600 | 15 ft | 0 kts | 276° |
| 2026-05-05 19:54 | 25.79146 | -80.27599 | 15 ft | 1 kts | 276° |
| 2026-05-05 19:54 | 25.79144 | -80.27583 | 15 ft | 2 kts | 276° |
| 2026-05-05 19:54 | 25.79143 | -80.27573 | 15 ft | 2 kts | 275° |
| 2026-05-05 19:55 | 25.79144 | -80.27557 | 15 ft | 2 kts | 256° |
| 2026-05-05 19:55 | 25.79149 | -80.27541 | 15 ft | 2 kts | 240° |
| 2026-05-05 19:55 | 25.79158 | -80.27528 | 15 ft | 2 kts | 224° |
| 2026-05-05 19:55 | 25.79170 | -80.27518 | 15 ft | 2 kts | 208° |
| 2026-05-05 19:56 | 25.79183 | -80.27512 | 15 ft | 2 kts | 192° |
| 2026-05-05 19:56 | 25.79196 | -80.27511 | 15 ft | 0 kts | 178° |
| 2026-05-05 19:56 | 25.79200 | -80.27511 | 15 ft | 0 kts | 177° |
| 2026-05-05 20:00 | 25.79187 | -80.27510 | 15 ft | 7 kts | 176° |
| 2026-05-05 20:01 | 25.79095 | -80.27505 | 15 ft | 17 kts | 180° |
| 2026-05-05 20:01 | 25.78964 | -80.27508 | 15 ft | 18 kts | 195° |
| 2026-05-05 20:01 | 25.78893 | -80.27604 | 15 ft | 16 kts | 257° |
| 2026-05-05 20:01 | 25.78877 | -80.27728 | 15 ft | 16 kts | 266° |
| 2026-05-05 20:02 | 25.78899 | -80.27849 | 15 ft | 16 kts | 295° |
| 2026-05-05 20:02 | 25.78950 | -80.27965 | 15 ft | 17 kts | 296° |
| 2026-05-05 20:02 | 25.78995 | -80.28086 | 15 ft | 16 kts | 270° |
| 2026-05-05 20:02 | 25.78979 | -80.28215 | 15 ft | 17 kts | 261° |
| 2026-05-05 20:03 | 25.78964 | -80.28348 | 15 ft | 17 kts | 263° |
| 2026-05-05 20:03 | 25.78954 | -80.28485 | 15 ft | 18 kts | 268° |
| 2026-05-05 20:03 | 25.78957 | -80.28625 | 15 ft | 18 kts | 272° |
| 2026-05-05 20:03 | 25.78951 | -80.28766 | 15 ft | 18 kts | 263° |
| 2026-05-05 20:04 | 25.78937 | -80.28909 | 15 ft | 18 kts | 263° |
| 2026-05-05 20:04 | 25.78909 | -80.29050 | 15 ft | 18 kts | 252° |
| 2026-05-05 20:04 | 25.78889 | -80.29189 | 15 ft | 17 kts | 269° |
| 2026-05-05 20:04 | 25.78888 | -80.29325 | 15 ft | 17 kts | 271° |
| 2026-05-05 20:05 | 25.78889 | -80.29466 | 15 ft | 18 kts | 269° |
| 2026-05-05 20:05 | 25.78885 | -80.29610 | 15 ft | 18 kts | 267° |
| 2026-05-05 20:05 | 25.78877 | -80.29758 | 15 ft | 19 kts | 267° |
| 2026-05-05 20:05 | 25.78869 | -80.29909 | 15 ft | 19 kts | 267° |
| 2026-05-05 20:06 | 25.78861 | -80.30064 | 15 ft | 20 kts | 266° |
| 2026-05-05 20:06 | 25.78854 | -80.30222 | 15 ft | 20 kts | 268° |
| 2026-05-05 20:06 | 25.78848 | -80.30399 | 15 ft | 25 kts | 268° |
| 2026-05-05 20:06 | 25.78836 | -80.30624 | 15 ft | 32 kts | 265° |
| 2026-05-05 20:07 | 25.78827 | -80.30898 | 15 ft | 38 kts | 270° |
| 2026-05-05 20:07 | 25.78817 | -80.31222 | 15 ft | 45 kts | 266° |
| 2026-05-05 20:07 | 25.78738 | -80.31458 | 15 ft | 22 kts | 185° |
| 2026-05-05 20:07 | 25.78680 | -80.31453 | 15 ft | 6 kts | 168° |
| 2026-05-05 20:08 | 25.78634 | -80.31419 | 15 ft | 12 kts | 124° |
| 2026-05-05 20:08 | 25.78614 | -80.31281 | 15 ft | 25 kts | 84° |
| 2026-05-05 20:08 | 25.78640 | -80.30911 | 15 ft | 89 kts | 88° |
| 2026-05-05 20:08 | 25.78676 | -80.29892 | 60 ft | 168 kts | 88° |
| 2026-05-05 20:09 | 25.78699 | -80.28497 | 817 ft | 188 kts | 88° |
| 2026-05-05 20:09 | 25.78755 | -80.27143 | 2052 ft | 179 kts | 81° |
| 2026-05-05 20:09 | 25.78986 | -80.25813 | 2893 ft | 184 kts | 74° |
| 2026-05-05 20:09 | 25.79425 | -80.24234 | 2695 ft | 244 kts | 69° |
| 2026-05-05 20:10 | 25.79925 | -80.22453 | 3669 ft | 242 kts | 82° |
| 2026-05-05 20:10 | 25.79756 | -80.20690 | 4718 ft | 236 kts | 110° |
| 2026-05-05 20:10 | 25.79107 | -80.18974 | 5377 ft | 247 kts | 118° |
| 2026-05-05 20:10 | 25.77940 | -80.17596 | 5995 ft | 253 kts | 150° |
| 2026-05-05 20:11 | 25.76436 | -80.16495 | 6644 ft | 266 kts | 137° |
| 2026-05-05 20:11 | 25.75312 | -80.14883 | 7293 ft | 260 kts | 122° |
| 2026-05-05 20:11 | 25.74530 | -80.13116 | 7831 ft | 257 kts | 101° |
| 2026-05-05 20:11 | 25.74526 | -80.11167 | 8235 ft | 260 kts | 73° |
| 2026-05-05 20:12 | 25.75226 | -80.09326 | 8677 ft | 261 kts | 56° |
| 2026-05-05 20:12 | 25.76264 | -80.07662 | 9150 ft | 259 kts | 49° |
| 2026-05-05 20:12 | 25.77388 | -80.06131 | 9589 ft | 258 kts | 47° |
| 2026-05-05 20:12 | 25.78558 | -80.04618 | 10018 ft | 259 kts | 46° |
| 2026-05-05 20:13 | 25.79747 | -80.03101 | 10448 ft | 261 kts | 45° |
| 2026-05-05 20:13 | 25.80947 | -80.01578 | 10891 ft | 264 kts | 45° |
| 2026-05-05 20:13 | 25.82160 | -80.00038 | 11344 ft | 267 kts | 45° |
| 2026-05-05 20:13 | 25.83381 | -79.98488 | 11807 ft | 269 kts | 45° |
| 2026-05-05 20:14 | 25.84604 | -79.96934 | 12277 ft | 270 kts | 45° |
| 2026-05-05 20:14 | 25.85848 | -79.95352 | 12749 ft | 271 kts | 45° |
| 2026-05-05 20:14 | 25.87079 | -79.93787 | 13222 ft | 271 kts | 44° |
| 2026-05-05 20:14 | 25.88316 | -79.92213 | 13768 ft | 272 kts | 44° |
| 2026-05-05 20:15 | 25.89564 | -79.90627 | 14219 ft | 273 kts | 44° |
| 2026-05-05 20:15 | 25.90816 | -79.89036 | 14561 ft | 276 kts | 44° |
| 2026-05-05 20:15 | 25.92090 | -79.87415 | 14893 ft | 280 kts | 44° |
| 2026-05-05 20:15 | 25.93381 | -79.85770 | 15292 ft | 284 kts | 44° |
| 2026-05-05 20:16 | 25.94676 | -79.84121 | 15653 ft | 287 kts | 44° |
| 2026-05-05 20:16 | 25.96009 | -79.82421 | 16016 ft | 291 kts | 44° |
| 2026-05-05 20:16 | 25.97345 | -79.80719 | 16374 ft | 294 kts | 44° |
| 2026-05-05 20:16 | 25.98676 | -79.79022 | 16734 ft | 297 kts | 44° |
| 2026-05-05 20:17 | 26.00048 | -79.77273 | 17094 ft | 301 kts | 44° |
| 2026-05-05 20:17 | 26.01425 | -79.75515 | 17450 ft | 304 kts | 44° |
| 2026-05-05 20:17 | 26.02830 | -79.73720 | 17810 ft | 308 kts | 43° |
| 2026-05-05 20:17 | 26.04234 | -79.71928 | 18163 ft | 312 kts | 43° |
| 2026-05-05 20:18 | 26.05672 | -79.70091 | 18521 ft | 315 kts | 43° |
| 2026-05-05 20:18 | 26.07110 | -79.68253 | 18881 ft | 319 kts | 43° |
| 2026-05-05 20:18 | 26.08571 | -79.66383 | 19235 ft | 322 kts | 43° |
| 2026-05-05 20:18 | 26.10027 | -79.64459 | 19587 ft | 327 kts | 45° |
| 2026-05-05 20:19 | 26.11416 | -79.62447 | 19945 ft | 332 kts | 47° |
| 2026-05-05 20:19 | 26.12782 | -79.60352 | 20302 ft | 336 kts | 48° |
| 2026-05-05 20:19 | 26.14150 | -79.58207 | 20658 ft | 340 kts | 49° |
| 2026-05-05 20:19 | 26.15501 | -79.56078 | 21005 ft | 343 kts | 49° |
| 2026-05-05 20:20 | 26.16886 | -79.53893 | 21363 ft | 346 kts | 49° |
| 2026-05-05 20:20 | 26.18280 | -79.51695 | 21717 ft | 348 kts | 48° |
| 2026-05-05 20:20 | 26.19680 | -79.49487 | 22067 ft | 351 kts | 48° |
| 2026-05-05 20:20 | 26.21080 | -79.47279 | 22420 ft | 353 kts | 48° |
| 2026-05-05 20:21 | 26.22487 | -79.45059 | 22788 ft | 355 kts | 48° |
| 2026-05-05 20:21 | 26.23923 | -79.42792 | 23167 ft | 356 kts | 47° |
| 2026-05-05 20:21 | 26.25347 | -79.40542 | 23541 ft | 358 kts | 47° |
| 2026-05-05 20:21 | 26.26787 | -79.38268 | 23921 ft | 359 kts | 47° |
| 2026-05-05 20:22 | 26.28308 | -79.36094 | 24297 ft | 353 kts | 38° |
| 2026-05-05 20:22 | 26.30080 | -79.34277 | 24673 ft | 345 kts | 30° |
| 2026-05-05 20:22 | 26.31991 | -79.32735 | 25050 ft | 340 kts | 26° |
| 2026-05-05 20:22 | 26.33980 | -79.31286 | 25436 ft | 338 kts | 24° |
| 2026-05-05 20:23 | 26.35952 | -79.29887 | 25815 ft | 336 kts | 24° |
| 2026-05-05 20:23 | 26.37936 | -79.28482 | 26200 ft | 334 kts | 24° |
| 2026-05-05 20:23 | 26.39873 | -79.27106 | 26579 ft | 332 kts | 24° |
| 2026-05-05 20:23 | 26.41816 | -79.25723 | 26963 ft | 328 kts | 24° |
| 2026-05-05 20:24 | 26.43735 | -79.24354 | 27348 ft | 324 kts | 23° |
| 2026-05-05 20:24 | 26.45622 | -79.23007 | 27733 ft | 320 kts | 23° |
| 2026-05-05 20:24 | 26.47469 | -79.21688 | 28113 ft | 314 kts | 23° |
| 2026-05-05 20:24 | 26.49276 | -79.20396 | 28489 ft | 307 kts | 22° |
| 2026-05-05 20:25 | 26.51053 | -79.19127 | 28867 ft | 300 kts | 22° |
| 2026-05-05 20:25 | 26.52775 | -79.17896 | 29242 ft | 291 kts | 22° |
| 2026-05-05 20:25 | 26.54449 | -79.16697 | 29624 ft | 279 kts | 21° |
| 2026-05-05 20:25 | 26.56063 | -79.15540 | 29997 ft | 266 kts | 20° |
| 2026-05-05 20:26 | 26.57575 | -79.14456 | 30308 ft | 252 kts | 20° |
| 2026-05-05 20:26 | 26.59030 | -79.13418 | 30441 ft | 244 kts | 19° |
| 2026-05-05 20:26 | 26.60459 | -79.12402 | 30424 ft | 241 kts | 19° |
| 2026-05-05 20:26 | 26.61882 | -79.11388 | 30357 ft | 240 kts | 19° |
| 2026-05-05 20:27 | 26.63273 | -79.10395 | 30254 ft | 239 kts | 19° |
| 2026-05-05 20:27 | 26.64682 | -79.09388 | 30128 ft | 240 kts | 19° |
| 2026-05-05 20:27 | 26.66091 | -79.08379 | 30003 ft | 240 kts | 19° |
| 2026-05-05 20:27 | 26.67498 | -79.07372 | 29909 ft | 239 kts | 19° |
| 2026-05-05 20:28 | 26.68889 | -79.06374 | 29767 ft | 240 kts | 19° |
| 2026-05-05 20:28 | 26.70301 | -79.05363 | 29637 ft | 241 kts | 19° |
| 2026-05-05 20:28 | 26.71709 | -79.04353 | 29505 ft | 242 kts | 19° |
| 2026-05-05 20:28 | 26.73133 | -79.03333 | 29369 ft | 243 kts | 20° |
| 2026-05-05 20:29 | 26.74557 | -79.02311 | 29243 ft | 244 kts | 20° |
| 2026-05-05 20:29 | 26.75979 | -79.01289 | 29145 ft | 244 kts | 20° |
| 2026-05-05 20:29 | 26.77424 | -79.00252 | 29019 ft | 244 kts | 20° |
| 2026-05-05 20:29 | 26.78845 | -78.99232 | 28907 ft | 245 kts | 20° |
| 2026-05-05 20:30 | 26.80271 | -78.98205 | 28854 ft | 244 kts | 20° |
| 2026-05-05 20:30 | 26.81703 | -78.97175 | 28801 ft | 242 kts | 20° |
| 2026-05-05 20:30 | 26.83112 | -78.96162 | 28731 ft | 242 kts | 20° |
| 2026-05-05 20:30 | 26.84533 | -78.95139 | 28678 ft | 241 kts | 20° |
| 2026-05-05 20:31 | 26.85928 | -78.94136 | 28592 ft | 241 kts | 20° |
| 2026-05-05 20:31 | 26.87346 | -78.93117 | 28490 ft | 241 kts | 20° |
| 2026-05-05 20:31 | 26.88761 | -78.92100 | 28380 ft | 242 kts | 20° |
| 2026-05-05 20:31 | 26.90186 | -78.91074 | 28286 ft | 242 kts | 20° |
| 2026-05-05 20:32 | 26.91589 | -78.90062 | 28235 ft | 241 kts | 20° |
| 2026-05-05 20:32 | 26.93006 | -78.89041 | 28181 ft | 241 kts | 20° |
| 2026-05-05 20:32 | 26.94410 | -78.88030 | 28115 ft | 240 kts | 20° |
| 2026-05-05 20:32 | 26.95824 | -78.87011 | 28032 ft | 241 kts | 20° |
| 2026-05-05 20:33 | 26.97229 | -78.85997 | 27977 ft | 240 kts | 20° |
| 2026-05-05 20:33 | 26.98627 | -78.84988 | 27920 ft | 239 kts | 20° |
| 2026-05-05 20:33 | 27.00024 | -78.83981 | 27857 ft | 239 kts | 20° |
| 2026-05-05 20:33 | 27.01422 | -78.82973 | 27789 ft | 239 kts | 20° |
| 2026-05-05 20:34 | 27.02838 | -78.81950 | 27723 ft | 239 kts | 20° |
| 2026-05-05 20:34 | 27.04234 | -78.80941 | 27649 ft | 239 kts | 20° |
| 2026-05-05 20:34 | 27.05632 | -78.79932 | 27579 ft | 239 kts | 20° |
| 2026-05-05 20:34 | 27.07030 | -78.78921 | 27521 ft | 239 kts | 20° |
| 2026-05-05 20:35 | 27.08432 | -78.77908 | 27474 ft | 239 kts | 20° |
| 2026-05-05 20:35 | 27.09815 | -78.76907 | 27447 ft | 238 kts | 20° |
| 2026-05-05 20:35 | 27.11204 | -78.75903 | 27417 ft | 237 kts | 20° |
| 2026-05-05 20:35 | 27.12586 | -78.74903 | 27384 ft | 236 kts | 20° |
| 2026-05-05 20:36 | 27.13967 | -78.73903 | 27350 ft | 236 kts | 20° |
| 2026-05-05 20:36 | 27.15352 | -78.72902 | 27304 ft | 236 kts | 20° |
| 2026-05-05 20:36 | 27.16730 | -78.71903 | 27265 ft | 236 kts | 19° |
| 2026-05-05 20:36 | 27.18109 | -78.70905 | 27216 ft | 236 kts | 20° |
| 2026-05-05 20:37 | 27.19489 | -78.69905 | 27187 ft | 236 kts | 20° |
| 2026-05-05 20:37 | 27.20866 | -78.68907 | 27134 ft | 236 kts | 20° |
| 2026-05-05 20:37 | 27.22251 | -78.67902 | 27096 ft | 236 kts | 20° |
| 2026-05-05 20:37 | 27.23630 | -78.66904 | 27069 ft | 236 kts | 20° |
| 2026-05-05 20:38 | 27.25019 | -78.65896 | 27046 ft | 235 kts | 20° |
| 2026-05-05 20:38 | 27.26391 | -78.64899 | 27022 ft | 234 kts | 20° |
| 2026-05-05 20:38 | 27.27791 | -78.64002 | 26949 ft | 227 kts | 8° |
| 2026-05-05 20:38 | 27.29252 | -78.63476 | 26902 ft | 218 kts | 360° |
| 2026-05-05 20:39 | 27.30730 | -78.63147 | 26890 ft | 213 kts | 356° |
| 2026-05-05 20:39 | 27.32202 | -78.62899 | 26846 ft | 212 kts | 355° |
| 2026-05-05 20:39 | 27.33669 | -78.62684 | 26812 ft | 212 kts | 355° |
| 2026-05-05 20:39 | 27.35116 | -78.62485 | 26787 ft | 211 kts | 355° |
| 2026-05-05 20:40 | 27.36577 | -78.62292 | 26751 ft | 211 kts | 355° |
| 2026-05-05 20:40 | 27.38051 | -78.62098 | 26734 ft | 211 kts | 354° |
| 2026-05-05 20:40 | 27.39513 | -78.61907 | 26723 ft | 210 kts | 354° |
| 2026-05-05 20:40 | 27.40956 | -78.61720 | 26708 ft | 210 kts | 354° |
| 2026-05-05 20:41 | 27.42414 | -78.61531 | 26650 ft | 211 kts | 354° |
| 2026-05-05 20:41 | 27.43874 | -78.61342 | 26636 ft | 210 kts | 354° |
| 2026-05-05 20:41 | 27.45332 | -78.61153 | 26623 ft | 210 kts | 354° |
| 2026-05-05 20:41 | 27.46786 | -78.60964 | 26606 ft | 209 kts | 354° |
| 2026-05-05 20:42 | 27.48236 | -78.60776 | 26579 ft | 210 kts | 354° |
| 2026-05-05 20:42 | 27.49688 | -78.60587 | 26565 ft | 209 kts | 354° |
| 2026-05-05 20:42 | 27.51138 | -78.60400 | 26537 ft | 209 kts | 354° |
| 2026-05-05 20:42 | 27.52584 | -78.60212 | 26520 ft | 209 kts | 354° |
| 2026-05-05 20:43 | 27.54033 | -78.60023 | 26503 ft | 209 kts | 354° |
| 2026-05-05 20:43 | 27.55477 | -78.59836 | 26477 ft | 209 kts | 354° |
| 2026-05-05 20:43 | 27.56928 | -78.59647 | 26446 ft | 209 kts | 354° |
| 2026-05-05 20:43 | 27.58417 | -78.59461 | 26160 ft | 226 kts | 354° |
| 2026-05-05 20:44 | 27.60076 | -78.59301 | 25611 ft | 249 kts | 354° |
| 2026-05-05 20:44 | 27.61773 | -78.59087 | 26153 ft | 242 kts | 357° |
| 2026-05-05 20:44 | 27.63433 | -78.58832 | 26555 ft | 240 kts | 356° |
| 2026-05-05 20:44 | 27.65103 | -78.58599 | 26763 ft | 245 kts | 356° |
| 2026-05-05 20:45 | 27.68574 | -78.58140 | 27168 ft | 257 kts | 356° |
| 2026-05-05 20:45 | 27.70373 | -78.57906 | 27376 ft | 263 kts | 356° |
| 2026-05-05 20:45 | 27.72229 | -78.57664 | 27586 ft | 271 kts | 357° |
| 2026-05-05 20:46 | 27.74118 | -78.57417 | 27790 ft | 278 kts | 357° |
| 2026-05-05 20:46 | 27.76072 | -78.57162 | 27995 ft | 283 kts | 357° |
| 2026-05-05 20:46 | 27.78055 | -78.56902 | 28199 ft | 287 kts | 357° |
| 2026-05-05 20:46 | 27.80041 | -78.56643 | 28402 ft | 290 kts | 357° |
| 2026-05-05 20:47 | 27.82059 | -78.56378 | 28609 ft | 294 kts | 357° |
| 2026-05-05 20:47 | 27.84113 | -78.56110 | 28811 ft | 297 kts | 357° |
| 2026-05-05 20:47 | 27.86165 | -78.55843 | 29016 ft | 301 kts | 357° |
| 2026-05-05 20:47 | 27.88266 | -78.55567 | 29219 ft | 304 kts | 357° |
| 2026-05-05 20:48 | 27.90408 | -78.55287 | 29422 ft | 308 kts | 357° |
| 2026-05-05 20:48 | 27.92532 | -78.55009 | 29622 ft | 312 kts | 357° |
| 2026-05-05 20:48 | 27.94702 | -78.54725 | 29823 ft | 314 kts | 357° |
| 2026-05-05 20:48 | 27.96880 | -78.54439 | 30024 ft | 316 kts | 357° |
| 2026-05-05 20:49 | 27.99096 | -78.54149 | 30229 ft | 319 kts | 357° |
| 2026-05-05 20:49 | 28.01312 | -78.53860 | 30434 ft | 321 kts | 358° |
| 2026-05-05 20:49 | 28.03538 | -78.53567 | 30632 ft | 324 kts | 357° |
| 2026-05-05 20:49 | 28.05781 | -78.53274 | 30838 ft | 327 kts | 357° |
| 2026-05-05 20:50 | 28.08062 | -78.52975 | 31043 ft | 330 kts | 357° |
| 2026-05-05 20:50 | 28.10361 | -78.52673 | 31245 ft | 333 kts | 357° |
| 2026-05-05 20:50 | 28.12671 | -78.52371 | 31448 ft | 336 kts | 357° |
| 2026-05-05 20:50 | 28.15004 | -78.52065 | 31658 ft | 340 kts | 358° |
| 2026-05-05 20:51 | 28.17383 | -78.51753 | 31861 ft | 344 kts | 357° |
| 2026-05-05 20:51 | 28.19773 | -78.51438 | 32063 ft | 348 kts | 357° |
| 2026-05-05 20:51 | 28.22156 | -78.51126 | 32265 ft | 351 kts | 358° |
| 2026-05-05 20:51 | 28.24638 | -78.50800 | 32475 ft | 355 kts | 357° |
| 2026-05-05 20:52 | 28.27094 | -78.50476 | 32691 ft | 359 kts | 357° |
| 2026-05-05 20:52 | 28.29597 | -78.50145 | 32953 ft | 361 kts | 357° |
| 2026-05-05 20:52 | 28.32087 | -78.49817 | 33212 ft | 364 kts | 357° |
| 2026-05-05 20:52 | 28.34596 | -78.49487 | 33501 ft | 367 kts | 357° |
| 2026-05-05 20:53 | 28.37138 | -78.49151 | 33782 ft | 369 kts | 357° |
| 2026-05-05 20:53 | 28.39718 | -78.48811 | 34075 ft | 371 kts | 357° |
| 2026-05-05 20:53 | 28.42296 | -78.48470 | 34366 ft | 373 kts | 357° |
| 2026-05-05 20:53 | 28.44872 | -78.48130 | 34655 ft | 375 kts | 357° |
| 2026-05-05 20:54 | 28.47485 | -78.47784 | 34943 ft | 377 kts | 356° |
| 2026-05-05 20:54 | 28.50085 | -78.47441 | 35235 ft | 379 kts | 357° |
| 2026-05-05 20:54 | 28.52735 | -78.47090 | 35529 ft | 380 kts | 357° |
| 2026-05-05 20:54 | 28.55360 | -78.46743 | 35816 ft | 381 kts | 357° |
| 2026-05-05 20:55 | 28.58013 | -78.46390 | 36113 ft | 382 kts | 356° |
| 2026-05-05 20:55 | 28.60656 | -78.46040 | 36407 ft | 383 kts | 356° |
| 2026-05-05 20:55 | 28.63311 | -78.45688 | 36699 ft | 383 kts | 356° |
| 2026-05-05 20:55 | 28.65975 | -78.45335 | 36993 ft | 384 kts | 356° |
| 2026-05-05 20:56 | 28.68612 | -78.44984 | 37287 ft | 383 kts | 356° |
| 2026-05-05 20:56 | 28.71296 | -78.44627 | 37584 ft | 383 kts | 356° |
| 2026-05-05 20:56 | 28.73947 | -78.44275 | 37879 ft | 383 kts | 356° |
| 2026-05-05 20:56 | 28.76566 | -78.43927 | 38179 ft | 382 kts | 356° |
| 2026-05-05 20:57 | 28.79234 | -78.43571 | 38489 ft | 381 kts | 355° |
| 2026-05-05 20:57 | 28.81865 | -78.43220 | 38802 ft | 380 kts | 356° |
| 2026-05-05 20:57 | 28.84495 | -78.42870 | 39105 ft | 379 kts | 355° |
| 2026-05-05 20:57 | 28.87127 | -78.42523 | 39058 ft | 385 kts | 355° |
| 2026-05-05 20:58 | 28.92537 | -78.41807 | 39048 ft | 394 kts | 356° |
| 2026-05-05 20:58 | 28.98026 | -78.41067 | 39050 ft | 402 kts | 356° |
| 2026-05-05 20:59 | 29.03634 | -78.40314 | 39055 ft | 410 kts | 356° |
| 2026-05-05 20:59 | 29.09392 | -78.39542 | 39051 ft | 418 kts | 356° |
| 2026-05-05 21:00 | 29.15210 | -78.38763 | 39058 ft | 427 kts | 356° |
| 2026-05-05 21:00 | 29.21190 | -78.37962 | 39053 ft | 435 kts | 356° |
| 2026-05-05 21:01 | 29.27222 | -78.37153 | 39057 ft | 443 kts | 356° |
| 2026-05-05 21:01 | 29.33369 | -78.36325 | 39060 ft | 445 kts | 357° |
| 2026-05-05 21:02 | 29.39506 | -78.35495 | 39058 ft | 443 kts | 357° |
| 2026-05-05 21:02 | 29.45639 | -78.34710 | 39052 ft | 438 kts | 354° |
| 2026-05-05 21:03 | 29.51684 | -78.34633 | 39069 ft | 433 kts | 349° |
| 2026-05-05 21:03 | 29.57668 | -78.34950 | 39052 ft | 432 kts | 348° |
| 2026-05-05 21:04 | 29.63679 | -78.35369 | 39066 ft | 433 kts | 348° |
| 2026-05-05 21:04 | 29.69683 | -78.35810 | 39068 ft | 432 kts | 347° |
| 2026-05-05 21:05 | 29.75660 | -78.36251 | 39067 ft | 429 kts | 348° |
| 2026-05-05 21:05 | 29.81642 | -78.36696 | 39067 ft | 430 kts | 347° |
| 2026-05-05 21:06 | 29.87622 | -78.37141 | 39068 ft | 430 kts | 348° |
| 2026-05-05 21:06 | 29.93671 | -78.37592 | 39068 ft | 431 kts | 348° |
| 2026-05-05 21:07 | 29.99667 | -78.38038 | 39072 ft | 427 kts | 347° |
| 2026-05-05 21:07 | 30.05596 | -78.38479 | 39063 ft | 426 kts | 347° |
| 2026-05-05 21:08 | 30.11575 | -78.38807 | 39054 ft | 434 kts | 352° |
| 2026-05-05 21:08 | 30.17627 | -78.38350 | 39067 ft | 441 kts | 356° |
| 2026-05-05 21:09 | 30.23728 | -78.37539 | 39069 ft | 441 kts | 358° |
| 2026-05-05 21:09 | 30.29827 | -78.36642 | 39065 ft | 441 kts | 358° |
| 2026-05-05 21:10 | 30.35927 | -78.35728 | 39070 ft | 440 kts | 358° |
| 2026-05-05 21:10 | 30.41948 | -78.34693 | 39069 ft | 441 kts | 0° |
| 2026-05-05 21:11 | 30.48024 | -78.33387 | 39069 ft | 444 kts | 1° |
| 2026-05-05 21:11 | 30.54094 | -78.31995 | 39069 ft | 446 kts | 1° |
| 2026-05-05 21:12 | 30.60196 | -78.30572 | 39068 ft | 445 kts | 2° |
| 2026-05-05 21:12 | 30.66260 | -78.29152 | 39068 ft | 442 kts | 2° |
| 2026-05-05 21:13 | 30.72290 | -78.27737 | 39069 ft | 440 kts | 1° |
| 2026-05-05 21:13 | 30.78264 | -78.26337 | 39069 ft | 440 kts | 1° |
| 2026-05-05 21:14 | 30.84283 | -78.24928 | 39073 ft | 444 kts | 1° |
| 2026-05-05 21:14 | 30.90356 | -78.23504 | 39069 ft | 444 kts | 2° |
| 2026-05-05 21:15 | 30.96384 | -78.22127 | 39068 ft | 438 kts | 1° |
| 2026-05-05 21:15 | 31.02338 | -78.20796 | 39069 ft | 438 kts | 1° |
| 2026-05-05 21:16 | 31.08341 | -78.19463 | 39077 ft | 439 kts | 2° |
| 2026-05-05 21:16 | 31.14350 | -78.18125 | 39072 ft | 440 kts | 1° |
| 2026-05-05 21:17 | 31.20319 | -78.16796 | 39077 ft | 438 kts | 1° |
| 2026-05-05 21:17 | 31.26324 | -78.15453 | 39077 ft | 437 kts | 1° |
| 2026-05-05 21:18 | 31.32287 | -78.14123 | 39076 ft | 438 kts | 1° |
| 2026-05-05 21:18 | 31.38301 | -78.12781 | 39079 ft | 441 kts | 1° |
| 2026-05-05 21:19 | 31.44321 | -78.11567 | 39074 ft | 437 kts | 0° |
| 2026-05-05 21:19 | 31.50321 | -78.10493 | 39077 ft | 435 kts | 359° |
| 2026-05-05 21:20 | 31.56299 | -78.09463 | 39084 ft | 435 kts | 359° |
| 2026-05-05 21:20 | 31.62280 | -78.08440 | 39082 ft | 437 kts | 359° |
| 2026-05-05 21:21 | 31.68307 | -78.07407 | 39089 ft | 435 kts | 359° |
| 2026-05-05 21:21 | 31.74303 | -78.06377 | 39080 ft | 434 kts | 359° |
| 2026-05-05 21:22 | 31.80276 | -78.05352 | 39087 ft | 434 kts | 359° |
| 2026-05-05 21:22 | 31.86274 | -78.04321 | 39085 ft | 435 kts | 359° |
| 2026-05-05 21:23 | 31.92279 | -78.03289 | 39095 ft | 437 kts | 360° |
| 2026-05-05 21:23 | 31.98262 | -78.02258 | 39085 ft | 437 kts | 0° |
| 2026-05-05 21:24 | 32.04275 | -78.01218 | 39088 ft | 436 kts | 360° |
| 2026-05-05 21:24 | 32.10273 | -78.00181 | 39093 ft | 434 kts | 359° |
| 2026-05-05 21:25 | 32.16270 | -77.99144 | 39089 ft | 436 kts | 359° |
| 2026-05-05 21:25 | 32.22259 | -77.98106 | 39090 ft | 436 kts | 360° |
| 2026-05-05 21:26 | 32.28289 | -77.97060 | 39089 ft | 436 kts | 360° |
| 2026-05-05 21:26 | 32.34284 | -77.96018 | 39090 ft | 436 kts | 360° |
| 2026-05-05 21:27 | 32.40291 | -77.94972 | 39089 ft | 436 kts | 0° |
| 2026-05-05 21:27 | 32.46306 | -77.93925 | 39090 ft | 438 kts | 0° |
| 2026-05-05 21:28 | 32.52325 | -77.92874 | 39090 ft | 437 kts | 0° |
| 2026-05-05 21:28 | 32.58311 | -77.91827 | 39090 ft | 435 kts | 0° |
| 2026-05-05 21:29 | 32.64291 | -77.90781 | 39090 ft | 435 kts | 0° |
| 2026-05-05 21:29 | 32.70309 | -77.89729 | 39090 ft | 438 kts | 0° |
| 2026-05-05 21:30 | 32.76346 | -77.88671 | 39090 ft | 440 kts | 0° |
| 2026-05-05 21:30 | 32.82398 | -77.87607 | 39090 ft | 439 kts | 1° |
| 2026-05-05 21:31 | 32.88432 | -77.86544 | 39089 ft | 439 kts | 0° |
| 2026-05-05 21:31 | 32.94474 | -77.85479 | 39089 ft | 438 kts | 0° |
| 2026-05-05 21:32 | 33.00485 | -77.84418 | 39090 ft | 438 kts | 1° |
| 2026-05-05 21:32 | 33.06540 | -77.83350 | 39095 ft | 439 kts | 0° |
| 2026-05-05 21:33 | 33.12600 | -77.82279 | 39090 ft | 441 kts | 1° |
| 2026-05-05 21:33 | 33.18655 | -77.81207 | 39093 ft | 442 kts | 1° |
| 2026-05-05 21:34 | 33.24727 | -77.80129 | 39094 ft | 441 kts | 1° |
| 2026-05-05 21:34 | 33.30840 | -77.79044 | 39085 ft | 444 kts | 1° |
| 2026-05-05 21:35 | 33.36914 | -77.77962 | 39089 ft | 442 kts | 1° |
| 2026-05-05 21:35 | 33.43005 | -77.76878 | 39083 ft | 444 kts | 1° |
| 2026-05-05 21:36 | 33.49129 | -77.75786 | 39087 ft | 444 kts | 1° |
| 2026-05-05 21:36 | 33.55199 | -77.74700 | 39086 ft | 443 kts | 1° |
| 2026-05-05 21:37 | 33.61349 | -77.73601 | 39086 ft | 447 kts | 1° |